Ferrelview, Missouri
Current Conditions -  °F | °C
As of 7:53 AM on Wednesday 28 Jan 2015 (Local Time) from KMCI Reporting Station
Scattered Clouds Scattered Clouds  
Wind Chill: 33°   Ceiling: Unl
Heat Index: 40°   Visibility: 10mi
Dew Point: 31°   Wind: 12mph
Humidity: 70%   Direction: 160°SSE
Pressure: 29.92"   Gusts: NA
Location:  39.3419°N, 94.7209°W
Report Text: KMCI 281353Z 16010KT 10SM SCT250 04/M01 A2992 RMK AO2 SLP136 T00441006
Loading
Personal Weather Stations






























Interactive Weather Map New forecast layout! Learn more

10-Day Weather Forecast

Advertisements
Track Severe Weather on mobile